createdAt,value
2023-01-20T00:00:35.487Z,-0.60
2023-01-20T00:03:26.291Z,-0.60
2023-01-20T00:06:17.103Z,-0.20
2023-01-20T00:09:06.917Z,-0.70
2023-01-20T00:12:11.270Z,-0.60
2023-01-20T00:15:05.818Z,-0.60
2023-01-20T00:18:08.878Z,-0.60
2023-01-20T00:20:45.062Z,-0.70
2023-01-20T00:23:53.497Z,-0.80
2023-01-20T00:26:44.799Z,-0.80
2023-01-20T00:32:50.353Z,-0.80
2023-01-20T00:36:46.569Z,-1.00
2023-01-20T00:40:03.292Z,-1.00
2023-01-20T00:53:30.689Z,-1.00
2023-01-20T00:57:31.706Z,-0.90
2023-01-20T01:33:13.466Z,-1.10
2023-01-20T01:47:59.147Z,-1.40
2023-01-20T02:07:14.121Z,-1.30
2023-01-20T02:15:08.270Z,-1.30
2023-01-20T02:36:05.347Z,-1.50
2023-01-20T02:43:09.829Z,-1.70
2023-01-20T03:02:34.577Z,-1.50
2023-01-20T03:06:56.978Z,-1.50
2023-01-20T03:43:01.767Z,-1.10
2023-01-20T05:04:59.162Z,-1.60
2023-01-20T05:09:01.591Z,-1.50
2023-01-20T06:04:40.741Z,-1.60
2023-01-20T06:29:24.608Z,-1.80
2023-01-20T07:49:56.712Z,-2.00
2023-01-20T07:59:18.325Z,-1.90
2023-01-20T08:28:15.375Z,-1.30
2023-01-20T08:42:45.784Z,-0.50
2023-01-20T08:45:16.558Z,-0.50
2023-01-20T08:47:47.349Z,-0.30
2023-01-20T08:50:16.923Z,-0.50
2023-01-20T08:52:45.253Z,-0.40
2023-01-20T08:55:14.947Z,-0.40
2023-01-20T08:57:43.271Z,-0.30
2023-01-20T09:00:16.059Z,-0.20
2023-01-20T09:02:44.260Z,-0.20
2023-01-20T09:05:14.284Z,-0.10
2023-01-20T09:07:43.022Z,0.00
2023-01-20T09:10:13.466Z,0.00
2023-01-20T09:12:41.770Z,0.00
2023-01-20T09:15:14.034Z,0.00
2023-01-20T09:17:42.773Z,0.10
2023-01-20T09:20:12.971Z,0.10
2023-01-20T09:22:42.872Z,0.20
2023-01-20T09:25:12.677Z,0.30
2023-01-20T09:27:40.833Z,0.30
2023-01-20T09:30:12.635Z,0.40
2023-01-20T09:32:41.504Z,0.50
2023-01-20T09:35:11.346Z,0.60
2023-01-20T09:37:57.943Z,0.70
2023-01-20T09:40:58.268Z,0.70
2023-01-20T09:43:57.200Z,0.90
2023-01-20T09:53:52.760Z,1.30
2023-01-20T09:56:27.143Z,1.40
2023-01-20T09:59:04.988Z,1.50
2023-01-20T10:01:43.629Z,1.60
2023-01-20T10:04:21.481Z,1.70
2023-01-20T10:06:53.846Z,1.70
2023-01-20T10:09:33.775Z,1.80
2023-01-20T10:12:11.822Z,1.80
2023-01-20T10:14:46.079Z,1.80
2023-01-20T10:17:22.533Z,1.90
2023-01-20T10:20:20.447Z,2.00
2023-01-20T10:22:58.052Z,2.00
2023-01-20T10:25:32.977Z,2.20
2023-01-20T10:28:10.213Z,2.30
2023-01-20T10:30:39.183Z,2.60
2023-01-20T10:33:38.051Z,2.80
2023-01-20T10:36:16.423Z,3.10
2023-01-20T10:38:54.922Z,3.10
2023-01-20T10:41:36.042Z,3.40
2023-01-20T10:44:12.709Z,3.80
2023-01-20T10:47:03.830Z,4.10
2023-01-20T10:50:08.401Z,4.50
2023-01-20T10:52:54.744Z,4.70
2023-01-20T10:55:39.425Z,5.00
2023-01-20T10:58:28.823Z,5.20
2023-01-20T11:01:00.294Z,5.50
2023-01-20T11:03:33.749Z,5.90
2023-01-20T11:06:05.734Z,6.00
2023-01-20T11:08:34.978Z,6.40
2023-01-20T11:11:14.116Z,6.70
2023-01-20T11:13:42.407Z,7.10
2023-01-20T11:16:18.238Z,7.40
2023-01-20T11:18:59.095Z,8.00
2023-01-20T11:21:33.581Z,8.10
2023-01-20T11:24:02.098Z,8.50
2023-01-20T11:26:34.843Z,8.60
2023-01-20T11:29:29.041Z,8.70
2023-01-20T11:31:59.638Z,8.90
2023-01-20T11:34:30.947Z,8.80
2023-01-20T11:37:21.998Z,9.00
2023-01-20T11:40:03.943Z,8.90
2023-01-20T11:42:44.872Z,9.10
2023-01-20T11:45:32.546Z,9.50
2023-01-20T11:48:21.844Z,9.70
2023-01-20T11:50:56.339Z,10.00
2023-01-20T11:53:29.571Z,10.10
2023-01-20T11:56:01.623Z,10.10
2023-01-20T11:58:35.100Z,10.40
2023-01-20T12:04:24.798Z,10.80
2023-01-20T12:06:59.583Z,11.20
2023-01-20T12:09:37.399Z,11.20
2023-01-20T12:12:15.736Z,10.80
2023-01-20T12:14:54.209Z,9.20
2023-01-20T12:17:45.270Z,7.70
2023-01-20T12:20:54.224Z,7.10
2023-01-20T12:23:45.851Z,6.90
2023-01-20T12:26:18.959Z,7.70
2023-01-20T12:29:03.409Z,8.60
2023-01-20T12:31:33.827Z,9.30
2023-01-20T12:34:06.236Z,9.90
2023-01-20T12:36:58.544Z,9.90
2023-01-20T12:40:09.667Z,9.00
2023-01-20T12:43:27.412Z,7.90
2023-01-20T12:46:32.766Z,6.80
2023-01-20T12:49:24.933Z,6.10
2023-01-20T12:52:11.191Z,5.70
2023-01-20T12:55:14.360Z,5.40
2023-01-20T12:58:04.597Z,5.50
2023-01-20T13:01:16.832Z,5.50
2023-01-20T13:04:18.174Z,5.40
2023-01-20T13:07:13.359Z,5.30
2023-01-20T13:09:58.825Z,5.10
2023-01-20T13:12:43.420Z,5.10
2023-01-20T13:15:25.980Z,4.90
2023-01-20T13:18:22.486Z,5.00
2023-01-20T13:20:53.482Z,4.90
2023-01-20T13:23:25.821Z,5.10
2023-01-20T13:25:57.526Z,4.80
2023-01-20T13:28:29.009Z,4.70
2023-01-20T13:31:00.849Z,4.60
2023-01-20T13:33:37.810Z,4.40
2023-01-20T13:36:19.492Z,4.30
2023-01-20T13:38:51.224Z,4.20
2023-01-20T13:41:50.481Z,4.10
2023-01-20T13:44:35.801Z,4.20
2023-01-20T13:47:09.347Z,4.00
2023-01-20T13:49:51.957Z,4.00
2023-01-20T13:53:05.498Z,4.00
2023-01-20T13:55:54.268Z,4.00
2023-01-20T13:58:26.149Z,4.00
2023-01-20T14:01:00.380Z,4.10
2023-01-20T14:03:33.646Z,4.00
2023-01-20T14:06:03.591Z,3.80
2023-01-20T14:08:39.931Z,3.70
2023-01-20T14:11:13.969Z,3.70
2023-01-20T14:13:44.385Z,3.70
2023-01-20T14:16:21.648Z,3.80
2023-01-20T14:18:53.288Z,3.90
2023-01-20T14:24:29.258Z,3.90
2023-01-20T14:27:08.545Z,3.90
2023-01-20T14:29:36.747Z,4.60
2023-01-20T14:32:22.036Z,4.00
2023-01-20T14:34:53.632Z,4.00
2023-01-20T14:37:28.826Z,4.10
2023-01-20T14:40:00.387Z,4.20
2023-01-20T14:42:31.135Z,4.30
2023-01-20T14:44:59.551Z,4.30
2023-01-20T14:47:29.061Z,4.20
2023-01-20T14:49:58.977Z,4.30
2023-01-20T14:52:31.127Z,4.60
2023-01-20T14:54:59.742Z,4.30
2023-01-20T14:57:33.157Z,4.00
2023-01-20T15:00:22.786Z,4.00
2023-01-20T15:03:09.995Z,4.00
2023-01-20T15:05:54.483Z,4.00
2023-01-20T15:08:27.115Z,4.00
2023-01-20T15:11:23.720Z,3.90
2023-01-20T15:14:17.834Z,3.90
2023-01-20T15:16:49.981Z,3.80
2023-01-20T15:19:35.573Z,3.70
2023-01-20T15:22:25.020Z,3.70
2023-01-20T15:24:54.563Z,3.60
2023-01-20T15:27:31.291Z,3.60
2023-01-20T15:30:16.406Z,3.50
2023-01-20T15:32:44.862Z,3.50
2023-01-20T15:35:16.221Z,3.40
2023-01-20T15:37:46.363Z,3.50
2023-01-20T15:40:18.084Z,3.60
2023-01-20T15:42:46.891Z,3.30
2023-01-20T15:45:17.360Z,3.20
2023-01-20T15:47:48.319Z,3.20
2023-01-20T15:50:20.733Z,3.20
2023-01-20T15:52:51.533Z,3.20
2023-01-20T15:55:21.211Z,3.20
2023-01-20T15:57:53.735Z,3.10
2023-01-20T16:00:25.094Z,3.00
2023-01-20T16:02:53.973Z,3.00
2023-01-20T16:05:22.528Z,3.00
2023-01-20T16:07:52.194Z,3.00
2023-01-20T16:10:21.410Z,3.00
2023-01-20T16:12:50.675Z,3.00
2023-01-20T16:15:20.036Z,3.00
2023-01-20T16:17:50.902Z,3.00
2023-01-20T16:20:23.898Z,3.00
2023-01-20T16:22:54.500Z,2.90
2023-01-20T16:25:23.923Z,2.90
2023-01-20T16:27:52.094Z,2.90
2023-01-20T16:30:23.199Z,2.90
2023-01-20T16:32:52.264Z,2.80
2023-01-20T16:35:23.513Z,2.80
2023-01-20T16:37:53.837Z,2.80
2023-01-20T16:40:24.596Z,2.70
2023-01-20T16:42:56.411Z,2.70
2023-01-20T16:45:28.176Z,2.60
2023-01-20T16:47:57.554Z,2.60
2023-01-20T16:50:28.318Z,2.50
2023-01-20T16:52:58.865Z,2.40
2023-01-20T16:55:27.585Z,2.40
2023-01-20T16:57:55.780Z,2.30
2023-01-20T17:00:24.605Z,2.30
2023-01-20T17:02:54.119Z,2.30
2023-01-20T17:05:25.900Z,2.30
2023-01-20T17:07:57.734Z,2.20
2023-01-20T17:10:28.559Z,2.30
2023-01-20T17:12:57.894Z,2.20
2023-01-20T17:15:27.045Z,2.20
2023-01-20T17:17:59.865Z,2.20
2023-01-20T17:20:31.481Z,2.20
2023-01-20T17:23:01.171Z,2.10
2023-01-20T17:25:29.632Z,2.10
2023-01-20T17:27:57.781Z,2.30
2023-01-20T17:30:26.964Z,2.10
2023-01-20T17:32:55.727Z,2.10
2023-01-20T17:35:24.316Z,2.10
2023-01-20T17:37:52.972Z,2.20
2023-01-20T17:40:23.945Z,2.10
2023-01-20T17:42:54.586Z,2.10
2023-01-20T17:45:22.992Z,2.10
2023-01-20T17:47:52.244Z,2.00
2023-01-20T17:50:20.737Z,1.90
2023-01-20T17:52:49.397Z,1.90
2023-01-20T17:55:18.368Z,1.80
2023-01-20T17:57:48.134Z,1.80
2023-01-20T18:00:17.558Z,1.80
2023-01-20T18:02:46.006Z,1.80
2023-01-20T18:05:14.935Z,1.80
2023-01-20T18:07:43.723Z,1.80
2023-01-20T18:10:13.238Z,1.80
2023-01-20T18:12:42.007Z,1.80
2023-01-20T18:15:11.949Z,1.90
2023-01-20T18:17:43.406Z,1.90
2023-01-20T18:20:15.533Z,1.90
2023-01-20T18:22:49.784Z,1.90
2023-01-20T18:25:18.544Z,1.90
2023-01-20T18:27:46.810Z,1.90
2023-01-20T18:30:18.565Z,2.00
2023-01-20T18:32:47.045Z,2.00
2023-01-20T18:35:15.942Z,2.00
2023-01-20T18:37:44.287Z,2.00
2023-01-20T18:40:14.482Z,2.00
2023-01-20T18:42:45.194Z,2.10
2023-01-20T18:45:13.517Z,2.10
2023-01-20T18:47:43.230Z,2.10
2023-01-20T18:50:13.277Z,2.10
2023-01-20T18:52:41.436Z,2.10
2023-01-20T18:55:11.871Z,2.10
2023-01-20T18:57:40.432Z,2.10
2023-01-20T19:00:11.030Z,2.10
2023-01-20T19:02:39.586Z,2.10
2023-01-20T19:05:10.347Z,2.10
2023-01-20T19:07:38.770Z,2.10
2023-01-20T19:10:07.751Z,2.00
2023-01-20T19:12:36.226Z,2.00
2023-01-20T19:15:04.901Z,1.90
2023-01-20T19:17:33.145Z,1.90
2023-01-20T19:20:02.019Z,1.90
2023-01-20T19:22:32.420Z,1.90
2023-01-20T19:25:01.589Z,1.90
2023-01-20T19:27:30.114Z,2.00
2023-01-20T19:29:58.423Z,2.00
2023-01-20T19:32:26.538Z,2.00
2023-01-20T19:34:54.865Z,2.00
2023-01-20T19:37:23.057Z,2.00
2023-01-20T19:39:52.544Z,1.90
2023-01-20T19:42:20.991Z,2.00
2023-01-20T19:44:48.976Z,2.00
2023-01-20T19:47:17.471Z,2.00
2023-01-20T19:49:45.687Z,2.00
2023-01-20T19:52:13.848Z,2.10
2023-01-20T19:54:42.553Z,2.10
2023-01-20T19:57:12.477Z,2.10
2023-01-20T19:59:40.952Z,2.10
2023-01-20T20:02:10.785Z,2.10
2023-01-20T20:04:39.266Z,2.10
2023-01-20T20:07:07.551Z,2.10
2023-01-20T20:09:35.824Z,2.10
2023-01-20T20:12:06.183Z,2.10
2023-01-20T20:14:36.143Z,2.10
2023-01-20T20:17:04.393Z,2.10
2023-01-20T20:19:33.525Z,2.10
2023-01-20T20:22:01.774Z,2.10
2023-01-20T20:24:30.062Z,2.10
2023-01-20T20:26:59.456Z,2.10
2023-01-20T20:29:27.980Z,2.10
2023-01-20T20:31:58.006Z,2.10
2023-01-20T20:34:26.441Z,2.00
2023-01-20T20:36:55.365Z,2.00
2023-01-20T20:39:23.561Z,2.00
2023-01-20T20:41:51.903Z,2.00
2023-01-20T20:44:20.309Z,1.90
2023-01-20T20:46:49.594Z,1.90
2023-01-20T20:49:20.057Z,1.90
2023-01-20T20:51:49.683Z,1.90
2023-01-20T20:54:17.991Z,1.90
2023-01-20T20:56:46.983Z,1.90
2023-01-20T20:59:15.538Z,1.90
2023-01-20T21:01:44.338Z,1.90
2023-01-20T21:04:13.034Z,1.90
2023-01-20T21:06:42.602Z,2.00
2023-01-20T21:09:11.198Z,2.00
2023-01-20T21:11:40.413Z,2.00
2023-01-20T21:14:11.413Z,2.10
2023-01-20T21:16:40.020Z,2.10
2023-01-20T21:19:09.388Z,2.10
2023-01-20T21:21:38.198Z,2.20
2023-01-20T21:24:10.047Z,2.20
2023-01-20T21:26:38.500Z,2.20
2023-01-20T21:29:07.145Z,2.20
2023-01-20T21:31:35.645Z,2.20
2023-01-20T21:34:04.588Z,2.20
2023-01-20T21:36:34.442Z,2.30
2023-01-20T21:39:02.888Z,2.20
2023-01-20T21:41:32.928Z,2.20
2023-01-20T21:44:18.718Z,2.20
2023-01-20T21:46:47.288Z,2.20
2023-01-20T21:49:33.255Z,2.20
2023-01-20T21:52:19.412Z,2.20
2023-01-20T21:54:47.620Z,2.10
2023-01-20T21:57:17.144Z,2.20
2023-01-20T21:59:46.072Z,2.20
2023-01-20T22:02:15.570Z,2.20
2023-01-20T22:04:46.369Z,2.20
2023-01-20T22:07:16.271Z,2.20
2023-01-20T22:09:45.108Z,2.20
2023-01-20T22:12:14.294Z,2.10
2023-01-20T22:14:44.037Z,2.20
2023-01-20T22:17:13.807Z,2.20
2023-01-20T22:19:43.777Z,2.20
2023-01-20T22:22:15.016Z,2.10
2023-01-20T22:24:44.256Z,2.10
2023-01-20T22:27:12.459Z,2.10
2023-01-20T22:29:41.135Z,2.00
2023-01-20T22:32:11.328Z,2.00
2023-01-20T22:34:39.981Z,2.00
2023-01-20T22:37:09.479Z,2.00
2023-01-20T22:39:38.409Z,2.00
2023-01-20T22:42:07.614Z,2.00
2023-01-20T22:44:35.781Z,2.00
2023-01-20T22:47:06.154Z,2.00
2023-01-20T22:49:35.740Z,2.00
2023-01-20T22:52:03.936Z,2.00
2023-01-20T22:54:32.921Z,2.00
2023-01-20T22:57:01.077Z,2.00
2023-01-20T22:59:30.080Z,2.00
2023-01-20T23:01:58.573Z,2.30
2023-01-20T23:04:27.577Z,2.00
2023-01-20T23:06:57.214Z,2.10
2023-01-20T23:09:26.366Z,2.10
2023-01-20T23:11:54.946Z,2.10
2023-01-20T23:14:43.153Z,2.10
2023-01-20T23:17:11.875Z,2.10
2023-01-20T23:19:40.047Z,2.10
2023-01-20T23:22:09.948Z,2.10
2023-01-20T23:24:38.093Z,2.10
2023-01-20T23:27:06.911Z,2.20
2023-01-20T23:29:35.088Z,2.10
2023-01-20T23:32:04.057Z,2.20
2023-01-20T23:34:32.850Z,2.10
2023-01-20T23:37:01.274Z,2.20
2023-01-20T23:39:30.829Z,2.20
2023-01-20T23:41:59.817Z,2.10
2023-01-20T23:44:27.995Z,2.20
2023-01-20T23:46:56.478Z,2.20
2023-01-20T23:49:25.568Z,2.10
2023-01-20T23:51:53.769Z,2.10
2023-01-20T23:54:22.393Z,2.10
2023-01-20T23:56:52.008Z,2.20
2023-01-20T23:59:21.499Z,2.00
